Time;durP1;ratioP1;P1;durP2;ratioP2;P2;SDS_P1;SDS_P2;PMS_P1;PMS_P2;Temp;Humidity;BMP_temperature;BMP_pressure;BME280_temperature;BME280_humidity;BME280_pressure;Samples;Min_cycle;Max_cycle;Signal;HPM_P1;HPM_P2
2022/03/05 00:00:04;;;;;;;24.77;10.20;;;;;;;0.48;66.24;101968.28;4988865;28;20477;-86
2022/03/05 00:02:29;;;;;;;24.53;9.97;;;;;;;0.45;66.04;101969.06;4988369;28;20117;-85
2022/03/05 00:04:54;;;;;;;24.10;10.00;;;;;;;0.43;66.48;101969.81;4989951;28;20515;-86
2022/03/05 00:07:20;;;;;;;23.73;10.53;;;;;;;0.41;66.97;101969.75;4989412;28;20030;-86
2022/03/05 00:09:46;;;;;;;25.13;10.33;;;;;;;0.40;66.53;101972.28;4982939;28;20523;-85
2022/03/05 00:12:11;;;;;;;28.27;11.03;;;;;;;0.37;66.68;101973.03;4987665;28;20030;-85
2022/03/05 00:14:36;;;;;;;25.03;10.20;;;;;;;0.37;66.49;101974.72;4989372;28;20034;-86
2022/03/05 00:17:02;;;;;;;25.50;10.47;;;;;;;0.36;66.78;101978.09;4989603;28;20481;-86
2022/03/05 00:19:28;;;;;;;25.37;10.67;;;;;;;0.30;67.29;101968.53;4988599;28;20034;-86
2022/03/05 00:21:54;;;;;;;27.97;11.47;;;;;;;0.28;66.55;101970.16;4989164;28;20105;-85
2022/03/05 00:24:19;;;;;;;24.87;10.73;;;;;;;0.24;67.14;101976.88;4985825;28;20031;-86
2022/03/05 00:26:46;;;;;;;27.30;11.57;;;;;;;0.24;66.66;101973.41;4988983;28;20023;-85
2022/03/05 00:29:12;;;;;;;26.10;10.50;;;;;;;0.21;66.86;101968.19;4986855;28;20029;-85
2022/03/05 00:31:37;;;;;;;25.13;10.90;;;;;;;0.19;67.07;101980.94;4988788;28;20050;-85
2022/03/05 00:34:02;;;;;;;24.50;10.73;;;;;;;0.14;66.90;101977.34;4986905;28;20030;-85
2022/03/05 00:36:27;;;;;;;25.37;10.73;;;;;;;0.12;67.25;101971.28;4989184;28;20069;-86
2022/03/05 00:38:53;;;;;;;26.17;10.87;;;;;;;0.09;67.46;101977.19;4988966;28;20057;-85
2022/03/05 00:41:18;;;;;;;24.27;10.43;;;;;;;0.05;68.45;101977.03;4991482;28;20034;-86
2022/03/05 00:43:43;;;;;;;26.77;10.37;;;;;;;0.01;67.88;101976.03;4992000;28;20078;-85
2022/03/05 00:46:08;;;;;;;23.80;10.40;;;;;;;-0.02;68.17;101976.78;4991274;28;20486;-85
2022/03/05 00:48:34;;;;;;;25.43;11.13;;;;;;;-0.06;68.43;101974.94;4991995;28;20045;-86
2022/03/05 00:50:59;;;;;;;25.97;10.37;;;;;;;-0.08;68.11;101975.69;4992357;28;20027;-86
2022/03/05 00:53:24;;;;;;;26.77;11.63;;;;;;;-0.13;67.99;101972.09;4990736;28;20507;-86
2022/03/05 00:55:50;;;;;;;26.90;11.03;;;;;;;-0.15;68.18;101972.06;4992462;28;20536;-85
2022/03/05 00:58:15;;;;;;;25.50;10.87;;;;;;;-0.17;68.61;101971.97;4992819;28;20038;-86
2022/03/05 01:00:41;;;;;;;26.50;11.33;;;;;;;-0.19;68.76;101967.63;4992232;28;20073;-86
2022/03/05 01:03:06;;;;;;;27.87;11.27;;;;;;;-0.20;68.79;101966.78;4992144;28;20036;-86
2022/03/05 01:05:32;;;;;;;25.90;11.17;;;;;;;-0.20;68.38;101955.66;4991812;28;20130;-86
2022/03/05 01:07:57;;;;;;;25.43;10.47;;;;;;;-0.23;68.55;101971.78;4991277;28;21740;-86
2022/03/05 01:10:22;;;;;;;27.30;11.20;;;;;;;-0.25;68.74;101965.72;4991031;28;20036;-86
2022/03/05 01:12:48;;;;;;;27.07;10.57;;;;;;;-0.25;69.05;101957.16;4992039;28;20437;-86
2022/03/05 01:15:13;;;;;;;27.10;11.50;;;;;;;-0.26;68.13;101958.00;4990856;28;20034;-85
2022/03/05 01:17:38;;;;;;;26.57;11.03;;;;;;;-0.27;69.22;101963.94;4988997;28;20042;-86
2022/03/05 01:20:05;;;;;;;27.07;11.00;;;;;;;-0.30;68.44;101964.66;4991700;28;20045;-85
2022/03/05 01:22:30;;;;;;;26.17;10.73;;;;;;;-0.31;68.71;101966.38;4986877;28;20092;-86
2022/03/05 01:24:56;;;;;;;26.27;10.83;;;;;;;-0.31;69.00;101962.94;4993097;28;20042;-85
2022/03/05 01:27:22;;;;;;;27.60;11.90;;;;;;;-0.35;69.08;101961.09;4990254;28;20089;-85
2022/03/05 01:29:48;;;;;;;27.53;11.40;;;;;;;-0.37;68.48;101957.59;4989572;28;20034;-85
2022/03/05 01:32:14;;;;;;;25.87;10.83;;;;;;;-0.39;69.04;101969.44;4983209;28;20051;-86
2022/03/05 01:34:39;;;;;;;23.87;10.43;;;;;;;-0.42;69.35;101959.09;4971085;28;20054;-85
2022/03/05 01:37:04;;;;;;;23.90;10.33;;;;;;;-0.45;69.12;101957.31;4970545;28;20039;-85
2022/03/05 01:39:30;;;;;;;25.57;10.33;;;;;;;-0.46;68.93;101953.03;4968223;28;20031;-86
2022/03/05 01:41:55;;;;;;;25.53;10.90;;;;;;;-0.50;69.23;101941.78;4971257;28;20030;-85
2022/03/05 01:44:22;;;;;;;25.90;10.90;;;;;;;-0.52;69.25;101956.22;4970440;28;20023;-85
2022/03/05 01:46:47;;;;;;;27.13;10.67;;;;;;;-0.55;69.08;101948.44;4971719;28;20035;-86
2022/03/05 01:49:13;;;;;;;25.90;10.90;;;;;;;-0.56;69.30;101954.34;4971036;28;20116;-86
2022/03/05 01:51:39;;;;;;;30.73;11.27;;;;;;;-0.56;69.25;101956.00;4972715;28;20042;-86
2022/03/05 01:54:06;;;;;;;24.43;10.80;;;;;;;-0.60;70.17;101952.47;4972481;28;20504;-86
2022/03/05 01:56:32;;;;;;;25.77;11.03;;;;;;;-0.62;69.27;101949.88;4970214;28;20039;-86
2022/03/05 01:58:58;;;;;;;26.67;11.10;;;;;;;-0.62;69.41;101957.56;4969970;28;20051;-85
2022/03/05 02:01:25;;;;;;;26.63;11.33;;;;;;;-0.64;69.83;101955.72;4970068;28;20046;-85
2022/03/05 02:03:51;;;;;;;25.97;11.50;;;;;;;-0.66;69.36;101954.78;4972148;28;20429;-85
2022/03/05 02:06:17;;;;;;;28.03;11.40;;;;;;;-0.68;69.94;101956.41;4954335;28;20022;-86
2022/03/05 02:08:42;;;;;;;29.60;11.87;;;;;;;-0.71;69.81;101956.31;4955042;28;20057;-86
2022/03/05 02:11:07;;;;;;;27.47;11.67;;;;;;;-0.72;70.08;101959.69;4969717;28;20106;-86
2022/03/05 02:13:33;;;;;;;29.10;11.20;;;;;;;-0.73;69.98;101958.78;4972223;28;20035;-86
2022/03/05 02:15:59;;;;;;;25.07;10.37;;;;;;;-0.73;69.71;101963.06;4972278;28;20383;-86
2022/03/05 02:18:25;;;;;;;24.73;10.43;;;;;;;-0.75;70.71;101960.41;4970835;28;20042;-86
2022/03/05 02:20:51;;;;;;;28.67;11.00;;;;;;;-0.76;70.00;101958.66;4969558;28;20050;-86
2022/03/05 02:23:16;;;;;;;29.33;11.13;;;;;;;-0.79;70.22;101959.44;4971369;28;20034;-85
2022/03/05 02:26:01;;;;;;;28.43;11.60;;;;;;;-0.80;69.11;101957.69;4974539;28;20094;-86
2022/03/05 02:28:27;;;;;;;30.00;11.53;;;;;;;-0.82;69.81;101961.00;4954011;28;20039;-85
2022/03/05 02:30:54;;;;;;;29.37;11.67;;;;;;;-0.85;70.15;101951.53;4971299;28;20038;-85
2022/03/05 02:33:19;;;;;;;27.13;11.03;;;;;;;-0.87;70.26;101949.72;4968785;28;20133;-85
2022/03/05 02:35:45;;;;;;;29.33;11.57;;;;;;;-0.89;69.88;101951.34;4953133;28;20158;-85
2022/03/05 02:38:12;;;;;;;28.50;12.00;;;;;;;-0.90;70.52;101939.38;4970540;28;20027;-85
2022/03/05 02:40:39;;;;;;;28.40;12.07;;;;;;;-0.93;70.49;101945.25;4970926;28;20154;-85
2022/03/05 02:43:05;;;;;;;28.77;11.77;;;;;;;-0.94;70.36;101943.50;4953625;28;20070;-85
2022/03/05 02:45:31;;;;;;;30.03;11.80;;;;;;;-0.96;70.41;101940.91;4968945;28;20058;-85
2022/03/05 02:47:56;;;;;;;25.80;10.77;;;;;;;-0.97;70.29;101945.94;4969992;28;20035;-85
2022/03/05 02:50:21;;;;;;;27.77;11.53;;;;;;;-0.99;69.88;101940.78;4969701;28;20371;-85
2022/03/05 02:52:47;;;;;;;30.30;12.10;;;;;;;-0.99;70.91;101945.00;4971050;28;20027;-86
2022/03/05 02:55:12;;;;;;;29.43;11.97;;;;;;;-1.02;70.62;101935.53;4952659;28;20053;-85
2022/03/05 02:57:37;;;;;;;28.53;11.50;;;;;;;-1.02;70.63;101943.22;4971099;28;20035;-86
2022/03/05 03:00:04;;;;;;;31.10;12.07;;;;;;;-1.07;70.82;101945.59;4952266;28;20047;-85
2022/03/05 03:02:29;;;;;;;25.90;10.97;;;;;;;-1.09;69.83;101944.66;4968852;28;20035;-85
2022/03/05 03:04:55;;;;;;;26.80;11.17;;;;;;;-1.14;70.74;101935.91;4971543;28;20494;-85
2022/03/05 03:07:20;;;;;;;27.97;10.83;;;;;;;-1.17;70.46;101935.78;4969190;28;20043;-85
2022/03/05 03:09:45;;;;;;;27.57;10.87;;;;;;;-1.21;69.53;101928.84;4969690;28;20486;-86
2022/03/05 03:12:11;;;;;;;25.50;10.57;;;;;;;-1.23;68.79;101935.56;4968959;28;20031;-85
2022/03/05 03:14:36;;;;;;;29.77;11.30;;;;;;;-1.25;69.33;101930.38;4953175;28;20496;-85
2022/03/05 03:17:01;;;;;;;28.47;11.10;;;;;;;-1.29;70.34;101933.63;4965620;28;20027;-85
2022/03/05 03:19:27;;;;;;;29.57;11.07;;;;;;;-1.31;70.27;101927.59;4949962;28;20038;-85
2022/03/05 03:21:52;;;;;;;28.20;11.10;;;;;;;-1.32;69.68;101930.06;4967841;28;20045;-85
2022/03/05 03:24:17;;;;;;;27.13;11.30;;;;;;;-1.35;69.97;101922.28;4968263;28;20398;-85
2022/03/05 03:26:45;;;;;;;29.33;11.23;;;;;;;-1.39;71.00;101924.72;4952321;28;20037;-85
2022/03/05 03:29:10;;;;;;;30.00;11.13;;;;;;;-1.40;70.18;101922.97;4951011;28;20034;-85
2022/03/05 03:31:35;;;;;;;28.80;11.70;;;;;;;-1.42;70.46;101924.59;4972976;28;20058;-85
2022/03/05 03:34:00;;;;;;;27.10;11.57;;;;;;;-1.43;70.16;101927.06;4986182;28;20377;-85
2022/03/05 03:36:26;;;;;;;28.03;10.70;;;;;;;-1.44;70.39;101925.31;4988168;28;20014;-85
2022/03/05 03:38:51;;;;;;;29.33;11.53;;;;;;;-1.46;70.31;101916.75;4986643;28;20380;-87
2022/03/05 03:41:16;;;;;;;30.27;12.00;;;;;;;-1.49;70.57;101924.28;4989188;28;20049;-85
2022/03/05 03:43:41;;;;;;;29.17;11.27;;;;;;;-1.53;71.15;101916.50;4989015;28;20059;-85
2022/03/05 03:46:07;;;;;;;27.37;10.77;;;;;;;-1.56;71.12;101921.47;4989683;28;20046;-85
2022/03/05 03:48:33;;;;;;;29.10;10.87;;;;;;;-1.59;71.20;101928.13;4981493;28;20034;-85
2022/03/05 03:50:58;;;;;;;26.37;10.37;;;;;;;-1.62;71.13;101921.19;4989148;28;20112;-85
2022/03/05 03:53:23;;;;;;;27.23;11.20;;;;;;;-1.64;71.04;101930.50;4990850;28;20039;-85
2022/03/05 03:55:49;;;;;;;28.27;11.30;;;;;;;-1.63;70.85;101934.78;4987581;28;20054;-85
2022/03/05 03:58:15;;;;;;;27.10;10.93;;;;;;;-1.69;70.88;101932.81;4989448;28;20030;-85
2022/03/05 04:00:40;;;;;;;25.47;10.30;;;;;;;-1.73;70.51;101938.63;4982463;28;20040;-85
2022/03/05 04:03:05;;;;;;;26.00;11.03;;;;;;;-1.74;70.61;101936.88;4984216;28;20500;-85
2022/03/05 04:05:31;;;;;;;25.20;10.03;;;;;;;-1.73;70.65;101941.19;4986587;28;20466;-85
2022/03/05 04:10:40;;;;;;;29.87;11.60;;;;;;;-1.73;70.58;101945.41;4986655;28;20096;-85
2022/03/05 04:13:05;;;;;;;27.00;10.87;;;;;;;-1.76;70.50;101933.41;4986370;28;20490;-85
2022/03/05 04:15:30;;;;;;;30.40;12.07;;;;;;;-1.78;70.24;101940.09;4986365;28;20041;-85
2022/03/05 04:17:56;;;;;;;29.83;11.47;;;;;;;-1.80;70.55;101936.63;4986770;28;20040;-85
2022/03/05 04:20:21;;;;;;;31.57;11.60;;;;;;;-1.84;71.25;101943.28;4987470;28;20466;-85
2022/03/05 04:22:47;;;;;;;27.73;11.47;;;;;;;-1.85;70.86;101943.19;4987574;28;20030;-85
2022/03/05 04:25:12;;;;;;;28.07;11.03;;;;;;;-1.89;71.66;101954.94;4986947;28;20477;-85
2022/03/05 04:27:37;;;;;;;28.50;11.57;;;;;;;-1.92;71.92;101948.84;4985488;28;20042;-85
2022/03/05 04:30:04;;;;;;;30.60;11.80;;;;;;;-1.93;71.71;101949.66;4985163;28;20031;-85
2022/03/05 04:32:30;;;;;;;30.13;11.60;;;;;;;-1.92;72.12;101957.34;4988976;28;20058;-85
2022/03/05 04:34:55;;;;;;;33.17;12.37;;;;;;;-1.93;71.33;101954.75;4988504;28;20034;-85
2022/03/05 04:37:21;;;;;;;30.07;11.63;;;;;;;-1.90;71.38;101957.44;4987826;28;20030;-85
2022/03/05 04:39:46;;;;;;;29.70;10.80;;;;;;;-1.94;71.76;101950.44;4987297;28;20038;-85
2022/03/05 04:42:11;;;;;;;29.97;11.13;;;;;;;-1.96;71.93;101955.47;4989518;28;20042;-85
2022/03/05 04:44:36;;;;;;;29.80;11.07;;;;;;;-1.96;72.13;101960.56;4986219;28;20114;-85
2022/03/05 04:47:02;;;;;;;27.30;10.23;;;;;;;-1.95;70.76;101958.91;4986593;28;20037;-85
2022/03/05 04:49:27;;;;;;;30.57;11.77;;;;;;;-1.96;71.54;101957.16;4990256;28;20045;-85
2022/03/05 04:51:52;;;;;;;32.77;11.97;;;;;;;-1.99;71.16;101958.75;4988563;28;20034;-85
2022/03/05 04:54:18;;;;;;;27.33;10.60;;;;;;;-2.03;71.26;101956.03;4989114;28;20033;-85
2022/03/05 04:56:43;;;;;;;29.10;10.80;;;;;;;-2.06;70.45;101961.88;4990549;28;20385;-85
2022/03/05 04:59:09;;;;;;;28.37;10.93;;;;;;;-2.09;71.02;101954.06;4987461;28;20046;-85
2022/03/05 05:01:34;;;;;;;33.77;11.13;;;;;;;-2.11;71.51;101959.88;4988025;28;20110;-85
2022/03/05 05:03:59;;;;;;;27.60;11.17;;;;;;;-2.14;71.18;101966.63;4985902;28;20691;-85
2022/03/05 05:06:24;;;;;;;29.87;11.27;;;;;;;-2.16;71.77;101973.34;4982284;28;20038;-84
2022/03/05 05:08:50;;;;;;;28.07;10.90;;;;;;;-2.19;71.90;101967.19;4984897;28;20053;-84
2022/03/05 05:11:16;;;;;;;30.63;11.57;;;;;;;-2.20;71.88;101971.44;4986695;28;20496;-85
2022/03/05 05:13:41;;;;;;;34.20;11.70;;;;;;;-2.19;71.84;101977.41;4986249;28;20038;-84
2022/03/05 05:16:06;;;;;;;33.37;12.20;;;;;;;-2.18;71.23;101974.03;4987270;28;20037;-85
2022/03/05 05:18:33;;;;;;;31.93;11.80;;;;;;;-2.18;72.10;101976.59;4987529;28;20029;-84
2022/03/05 05:20:58;;;;;;;30.73;11.83;;;;;;;-2.20;71.63;101975.66;4987549;28;20492;-84
2022/03/05 05:23:23;;;;;;;29.50;12.13;;;;;;;-2.21;72.40;101974.78;4987711;28;20049;-85
2022/03/05 05:25:49;;;;;;;34.07;12.50;;;;;;;-2.23;71.79;101978.09;4987699;28;20026;-84
2022/03/05 05:28:14;;;;;;;32.03;11.70;;;;;;;-2.25;72.21;101975.44;4991365;28;20404;-84
2022/03/05 05:30:39;;;;;;;33.90;12.13;;;;;;;-2.23;72.40;101985.72;4990748;28;20111;-85
2022/03/05 05:33:05;;;;;;;29.73;11.57;;;;;;;-2.23;72.26;101988.28;4989672;28;20086;-85
2022/03/05 05:35:30;;;;;;;30.07;11.30;;;;;;;-2.25;72.54;101993.28;4990742;28;20041;-85
2022/03/05 05:37:56;;;;;;;33.13;11.80;;;;;;;-2.23;71.96;101990.84;4990943;28;20033;-85
2022/03/05 05:40:21;;;;;;;28.70;11.33;;;;;;;-2.26;72.47;101995.78;4990189;28;20034;-85
2022/03/05 05:42:46;;;;;;;31.97;12.80;;;;;;;-2.26;73.09;101995.78;4991099;28;20041;-85
2022/03/05 05:45:12;;;;;;;31.90;12.10;;;;;;;-2.27;72.58;101991.50;4989323;28;20046;-85
2022/03/05 05:47:38;;;;;;;28.57;11.60;;;;;;;-2.27;72.37;101991.50;4992463;28;20036;-84
2022/03/05 05:50:05;;;;;;;33.50;12.53;;;;;;;-2.27;72.93;101991.50;4991032;28;20031;-85
2022/03/05 05:52:30;;;;;;;32.00;11.50;;;;;;;-2.30;72.61;101994.75;4988732;28;20026;-84
2022/03/05 05:54:55;;;;;;;32.37;11.97;;;;;;;-2.31;73.19;101993.91;4988908;28;20038;-85
2022/03/05 05:57:21;;;;;;;30.57;12.53;;;;;;;-2.32;72.75;101992.16;4990897;28;20034;-85
2022/03/05 05:59:46;;;;;;;36.77;12.90;;;;;;;-2.33;72.97;101990.41;4989148;28;20026;-85
2022/03/05 06:02:11;;;;;;;33.60;11.37;;;;;;;-2.31;72.71;101998.13;4990860;28;20030;-86
2022/03/05 06:04:37;;;;;;;35.27;13.10;;;;;;;-2.31;72.43;101993.91;4991104;28;20062;-85
2022/03/05 06:07:02;;;;;;;31.43;11.83;;;;;;;-2.30;72.85;101982.91;4986640;28;20085;-85
2022/03/05 06:09:28;;;;;;;28.57;11.27;;;;;;;-2.31;73.35;101982.84;4989121;28;20022;-85
2022/03/05 06:11:54;;;;;;;33.17;12.90;;;;;;;-2.32;73.16;101984.50;4988422;28;20041;-85
2022/03/05 06:14:19;;;;;;;32.47;11.87;;;;;;;-2.31;73.42;101993.91;4988197;28;20034;-85
2022/03/05 06:16:44;;;;;;;32.90;12.73;;;;;;;-2.32;73.45;101993.84;4990453;28;20041;-84
2022/03/05 06:19:10;;;;;;;33.63;12.43;;;;;;;-2.32;72.94;101986.19;4988694;28;20106;-85
2022/03/05 06:21:35;;;;;;;36.03;12.77;;;;;;;-2.32;72.74;101997.25;4988792;28;20026;-85
2022/03/05 06:24:00;;;;;;;32.67;12.87;;;;;;;-2.32;72.74;101992.16;4986038;28;20371;-84
2022/03/05 06:26:28;;;;;;;34.33;12.50;;;;;;;-2.34;73.12;101988.66;4988772;28;20160;-85
2022/03/05 06:28:54;;;;;;;27.80;11.00;;;;;;;-2.34;72.92;101996.28;4987160;28;20030;-84
2022/03/05 06:31:19;;;;;;;35.57;11.93;;;;;;;-2.32;73.64;101996.38;4988816;28;20664;-84
2022/03/05 06:33:44;;;;;;;33.93;11.27;;;;;;;-2.32;72.58;101991.28;4988449;28;20050;-84
2022/03/05 06:36:10;;;;;;;33.23;11.83;;;;;;;-2.30;72.82;101989.66;4984703;28;20034;-84
2022/03/05 06:38:35;;;;;;;31.70;12.17;;;;;;;-2.27;73.47;101994.03;4989350;28;20034;-84
2022/03/05 06:41:01;;;;;;;35.17;12.40;;;;;;;-2.27;73.45;101986.38;4991645;28;20056;-85
2022/03/05 06:43:26;;;;;;;33.53;12.57;;;;;;;-2.27;73.26;101991.50;4987819;28;20085;-84
2022/03/05 06:45:52;;;;;;;33.90;11.97;;;;;;;-2.26;73.32;101985.59;4989947;28;20476;-84
2022/03/05 06:48:17;;;;;;;36.83;12.73;;;;;;;-2.23;73.51;101990.84;4983890;28;20113;-85
2022/03/05 06:50:42;;;;;;;36.43;12.87;;;;;;;-2.21;73.53;101989.19;4989157;28;20061;-86
2022/03/05 06:53:08;;;;;;;33.03;12.27;;;;;;;-2.19;73.89;101997.78;4988606;28;20038;-84
2022/03/05 06:55:33;;;;;;;35.90;12.23;;;;;;;-2.18;73.50;101997.88;4990430;28;20034;-84
2022/03/05 06:57:58;;;;;;;40.40;13.50;;;;;;;-2.15;73.42;102004.78;4988228;28;20398;-85
2022/03/05 07:00:24;;;;;;;36.43;12.80;;;;;;;-2.14;73.92;102006.53;4991528;28;20031;-85
2022/03/05 07:02:49;;;;;;;33.37;12.17;;;;;;;-2.10;73.50;102012.63;4986031;28;20033;-85
2022/03/05 07:05:15;;;;;;;34.40;12.37;;;;;;;-2.07;72.94;102011.13;4988179;28;20405;-84
2022/03/05 07:07:40;;;;;;;36.50;12.87;;;;;;;-2.05;73.65;102018.81;4990005;28;20073;-84
2022/03/05 07:10:06;;;;;;;36.47;12.60;;;;;;;-2.02;73.71;102013.88;4989880;28;20477;-86
2022/03/05 07:12:32;;;;;;;37.20;12.90;;;;;;;-1.98;73.07;102029.38;4987099;28;20042;-85
2022/03/05 07:14:58;;;;;;;34.70;12.40;;;;;;;-1.94;73.69;102016.75;4990104;28;20034;-85
2022/03/05 07:17:24;;;;;;;33.43;11.97;;;;;;;-1.90;74.00;102026.31;4985511;28;20128;-84
2022/03/05 07:19:50;;;;;;;35.97;13.13;;;;;;;-1.86;73.46;102023.06;4988308;28;20486;-84
2022/03/05 07:22:16;;;;;;;39.03;13.47;;;;;;;-1.83;73.87;102026.66;4989081;28;20022;-84
2022/03/05 07:24:41;;;;;;;38.80;13.70;;;;;;;-1.79;73.45;102034.44;4985559;28;20037;-84
2022/03/05 07:27:06;;;;;;;32.87;12.93;;;;;;;-1.76;73.24;102027.78;4988681;28;20045;-84
2022/03/05 07:29:32;;;;;;;34.77;12.43;;;;;;;-1.72;73.29;102034.78;4983299;28;20030;-85
2022/03/05 07:31:57;;;;;;;33.70;12.10;;;;;;;-1.69;73.27;102034.88;4989402;28;20043;-85
2022/03/05 07:34:22;;;;;;;33.57;11.70;;;;;;;-1.63;73.83;102030.88;4983114;28;20157;-85
2022/03/05 07:36:47;;;;;;;33.67;13.47;;;;;;;-1.61;73.68;102035.22;4987250;28;20037;-85
2022/03/05 07:39:13;;;;;;;42.97;12.47;;;;;;;-1.55;73.88;102032.09;4986243;28;20065;-86
2022/03/05 07:41:38;;;;;;;38.27;12.97;;;;;;;-1.53;73.88;102027.91;4987763;28;20050;-86
2022/03/05 07:44:05;;;;;;;34.67;13.03;;;;;;;-1.48;74.01;102035.78;4988454;28;20038;-85
2022/03/05 07:46:32;;;;;;;35.03;12.33;;;;;;;-1.44;73.56;102033.41;4990442;28;20049;-85
2022/03/05 07:48:57;;;;;;;33.97;12.73;;;;;;;-1.40;73.73;102034.41;4994380;28;20057;-86
2022/03/05 07:51:22;;;;;;;34.53;12.13;;;;;;;-1.35;73.88;102034.59;4990322;28;20042;-86
2022/03/05 07:53:48;;;;;;;36.20;12.50;;;;;;;-1.31;73.46;102033.94;4993860;28;20035;-84
2022/03/05 07:56:13;;;;;;;35.90;12.63;;;;;;;-1.29;73.31;102035.75;4990300;28;20057;-85
2022/03/05 07:58:38;;;;;;;34.13;12.73;;;;;;;-1.26;73.96;102037.56;4991176;28;20025;-85
2022/03/05 08:01:04;;;;;;;37.63;12.93;;;;;;;-1.21;73.85;102041.19;4993095;28;21503;-85
2022/03/05 08:03:29;;;;;;;33.40;12.90;;;;;;;-1.17;74.23;102048.16;4991962;28;20037;-86
2022/03/05 08:05:54;;;;;;;37.70;12.90;;;;;;;-1.12;73.52;102048.38;4993851;28;20057;-86
2022/03/05 08:08:20;;;;;;;33.67;11.73;;;;;;;-1.09;74.11;102046.81;4990900;28;20152;-86
2022/03/05 08:10:45;;;;;;;35.53;12.77;;;;;;;-1.02;73.79;102052.16;4993658;28;20042;-86
2022/03/05 08:13:12;;;;;;;34.37;12.97;;;;;;;-0.98;74.64;102049.81;4989219;28;20030;-86
2022/03/05 08:15:37;;;;;;;36.10;13.10;;;;;;;-0.93;74.07;102057.66;4993070;28;20173;-86
2022/03/05 08:18:03;;;;;;;36.10;12.80;;;;;;;-0.88;73.50;102058.72;4992245;28;20117;-86
2022/03/05 08:20:31;;;;;;;37.53;13.67;;;;;;;-0.84;73.60;102058.00;4993855;28;20034;-86
2022/03/05 08:22:56;;;;;;;37.30;13.27;;;;;;;-0.80;74.04;102064.16;4992825;28;20026;-87
2022/03/05 08:25:22;;;;;;;32.33;12.47;;;;;;;-0.74;74.31;102058.41;4990220;28;20049;-86
2022/03/05 08:27:48;;;;;;;34.43;12.17;;;;;;;-0.68;73.96;102066.31;4995269;28;20050;-87
2022/03/05 08:30:15;;;;;;;37.63;13.17;;;;;;;-0.64;73.95;102063.06;4991421;28;20527;-86
2022/03/05 08:32:40;;;;;;;34.27;12.43;;;;;;;-0.62;74.19;102054.66;4988786;28;20053;-87
2022/03/05 08:35:07;;;;;;;36.47;13.13;;;;;;;-0.57;73.99;102059.97;4990837;28;20034;-85
2022/03/05 08:37:33;;;;;;;38.57;12.83;;;;;;;-0.51;74.53;102056.78;4988717;28;20026;-87
2022/03/05 08:39:58;;;;;;;37.23;12.77;;;;;;;-0.46;74.49;102056.13;4988849;28;20491;-86
2022/03/05 08:42:24;;;;;;;38.47;13.27;;;;;;;-0.40;74.64;102054.63;4988620;28;20044;-88
2022/03/05 08:44:49;;;;;;;37.47;13.20;;;;;;;-0.36;73.66;102054.81;4989626;28;20040;-87
2022/03/05 08:47:14;;;;;;;35.60;12.73;;;;;;;-0.31;73.92;102055.88;4988874;28;20149;-86
2022/03/05 08:49:40;;;;;;;37.43;13.17;;;;;;;-0.27;73.05;102051.75;4994291;28;20057;-88
2022/03/05 08:52:05;;;;;;;35.80;12.83;;;;;;;-0.22;73.23;102050.25;4994048;28;20041;-86
2022/03/05 08:54:31;;;;;;;40.37;13.87;;;;;;;-0.16;74.29;102054.72;4992439;28;20026;-86
2022/03/05 08:56:56;;;;;;;33.23;12.83;;;;;;;-0.10;73.31;102054.06;4995713;28;20030;-86
2022/03/05 08:59:21;;;;;;;36.97;13.30;;;;;;;-0.05;73.97;102053.41;4993112;28;20069;-86
2022/03/05 09:01:47;;;;;;;34.07;12.97;;;;;;;0.00;73.43;102051.06;4994640;28;20474;-86
2022/03/05 09:04:13;;;;;;;39.43;13.83;;;;;;;0.05;73.11;102052.06;4998057;28;20026;-87
2022/03/05 09:06:39;;;;;;;33.53;12.53;;;;;;;0.11;73.28;102047.19;4997414;28;20038;-88
2022/03/05 09:09:05;;;;;;;38.27;13.57;;;;;;;0.17;73.52;102038.03;4997799;28;20037;-87
2022/03/05 09:11:31;;;;;;;38.63;14.47;;;;;;;0.22;72.88;102041.59;4993678;28;20038;-87
2022/03/05 09:13:57;;;;;;;37.20;13.07;;;;;;;0.28;73.66;102029.88;4982787;28;20197;-86
2022/03/05 09:16:22;;;;;;;34.00;12.83;;;;;;;0.34;72.87;102036.94;4996496;28;20090;-87
2022/03/05 09:18:47;;;;;;;34.87;13.13;;;;;;;0.39;73.32;102040.50;4995534;28;20065;-86
2022/03/05 09:21:13;;;;;;;35.90;13.73;;;;;;;0.47;72.88;102039.94;4994778;28;20034;-86
2022/03/05 09:23:39;;;;;;;37.83;13.67;;;;;;;0.51;72.65;102042.63;4992004;28;20748;-88
2022/03/05 09:26:04;;;;;;;37.40;13.80;;;;;;;0.57;72.55;102035.19;4991933;28;20126;-87
2022/03/05 09:28:30;;;;;;;37.30;14.17;;;;;;;0.65;72.97;102037.13;4991121;28;20116;-87
2022/03/05 09:30:55;;;;;;;36.23;13.37;;;;;;;0.69;72.36;102029.59;4991679;28;20414;-87
2022/03/05 09:33:22;;;;;;;37.30;13.60;;;;;;;0.75;72.11;102027.25;4987962;28;20145;-86
2022/03/05 09:35:49;;;;;;;35.57;13.37;;;;;;;0.81;72.07;102035.97;4993034;28;20574;-88
2022/03/05 09:38:15;;;;;;;37.37;13.37;;;;;;;0.85;71.46;102030.13;4989058;28;20096;-88
2022/03/05 09:40:41;;;;;;;34.73;12.53;;;;;;;0.90;71.83;102032.03;4995081;28;20034;-88
2022/03/05 09:43:06;;;;;;;36.87;13.37;;;;;;;0.96;72.24;102031.38;4997828;28;20058;-87
2022/03/05 09:45:32;;;;;;;41.37;14.00;;;;;;;1.03;71.67;102035.84;4992236;28;20038;-87
2022/03/05 09:47:58;;;;;;;37.53;13.70;;;;;;;1.11;71.42;102043.78;4996653;28;20113;-87
2022/03/05 09:50:32;;;;;;;37.43;13.63;;;;;;;1.18;71.23;102034.63;4998404;28;20496;-85
2022/03/05 09:52:58;;;;;;;38.83;13.37;;;;;;;1.24;71.20;102036.53;4998350;28;20057;-87
2022/03/05 09:55:23;;;;;;;35.13;13.47;;;;;;;1.30;70.51;102039.25;4997704;28;20026;-87
2022/03/05 09:57:49;;;;;;;36.40;13.13;;;;;;;1.34;70.97;102034.31;4999452;28;20034;-86
2022/03/05 10:00:14;;;;;;;36.60;13.27;;;;;;;1.41;69.94;102037.94;4999071;28;20030;-87
2022/03/05 10:02:41;;;;;;;37.90;14.93;;;;;;;1.47;69.65;102034.69;4996190;28;20721;-87
2022/03/05 10:05:20;;;;;;;39.17;14.00;;;;;;;1.55;70.08;102042.59;4991142;28;20117;-88
2022/03/05 10:08:00;;;;;;;36.70;13.80;;;;;;;1.63;70.38;102036.00;4996546;28;20038;-87
2022/03/05 10:10:25;;;;;;;36.63;13.53;;;;;;;1.70;68.98;102042.22;4996898;28;20087;-87
2022/03/05 10:12:51;;;;;;;35.67;13.90;;;;;;;1.77;69.22;102039.00;4993950;28;20030;-89
2022/03/05 10:15:23;;;;;;;37.90;13.93;;;;;;;1.82;68.38;102038.31;4994754;28;20525;-86
2022/03/05 10:17:59;;;;;;;38.22;14.10;;;;;;;1.90;68.91;102033.41;4993644;28;20605;-86
2022/03/05 10:20:27;;;;;;;33.13;13.27;;;;;;;1.99;68.95;102031.94;4996036;28;20201;-86
2022/03/05 10:22:58;;;;;;;34.57;13.93;;;;;;;2.06;68.84;102037.28;4993128;28;20034;-86
2022/03/05 10:25:59;;;;;;;40.08;14.13;;;;;;;2.12;67.94;102034.91;4999248;28;20492;-87
2022/03/05 10:28:28;;;;;;;33.33;13.53;;;;;;;2.20;67.97;102037.69;4957864;28;20053;-87
2022/03/05 10:31:03;;;;;;;33.53;13.90;;;;;;;2.27;67.21;102039.59;4996451;28;20042;-90
2022/03/05 10:33:45;;;;;;;36.80;13.30;;;;;;;2.32;66.53;102037.16;4993063;28;20345;-85
2022/03/05 10:36:16;;;;;;;;;;;;;;;2.39;67.96;102038.22;4995516;28;20037;-86
2022/03/05 10:38:45;;;;;;;34.60;13.03;;;;;;;2.44;66.41;102041.75;5002166;28;20335;-87
2022/03/05 10:41:12;;;;;;;33.53;13.00;;;;;;;2.49;66.09;102047.91;4998392;28;20282;-86
2022/03/05 10:43:37;;;;;;;33.63;13.27;;;;;;;2.53;65.87;102038.56;4999927;28;20081;-87
2022/03/05 10:46:03;;;;;;;37.27;14.00;;;;;;;2.55;66.55;102030.09;4996477;28;20031;-87
2022/03/05 10:48:31;;;;;;;35.03;14.57;;;;;;;2.62;66.05;102032.81;5000296;28;20036;-87
2022/03/05 10:50:58;;;;;;;39.07;15.27;;;;;;;2.68;66.17;102032.97;4995993;28;20540;-87
2022/03/05 10:53:38;;;;;;;32.47;13.47;;;;;;;2.76;66.15;102034.03;4996186;28;20085;-86
2022/03/05 10:56:42;;;;;;;33.87;13.93;;;;;;;2.85;65.94;102038.53;4998105;28;20026;-87
2022/03/05 10:59:12;;;;;;;38.33;14.63;;;;;;;2.88;64.14;102036.06;4954242;28;20030;-86
2022/03/05 11:01:41;;;;;;;32.67;13.43;;;;;;;2.94;64.45;102032.75;4959838;28;20098;-84
2022/03/05 11:04:08;;;;;;;37.13;14.53;;;;;;;2.99;64.24;102036.31;4978655;28;20042;-84
2022/03/05 11:06:38;;;;;;;36.30;14.40;;;;;;;3.05;64.22;102036.50;4999063;28;20496;-85
2022/03/05 11:09:06;;;;;;;36.23;14.47;;;;;;;3.10;64.00;102032.31;4996930;28;20124;-85